sensor_id;sensor_type;location;lat;lon;timestamp;P1;durP1;ratioP1;P2;durP2;ratioP2
18596;SDS011;9428;50.950;6.912;2022-12-07T00:01:41;31.77;;;19.43;;
18596;SDS011;9428;50.950;6.912;2022-12-07T00:04:29;33.73;;;19.83;;
18596;SDS011;9428;50.950;6.912;2022-12-07T00:07:16;32.97;;;19.17;;
18596;SDS011;9428;50.950;6.912;2022-12-07T00:10:04;31.87;;;17.67;;
18596;SDS011;9428;50.950;6.912;2022-12-07T00:12:52;31.30;;;17.80;;
18596;SDS011;9428;50.950;6.912;2022-12-07T00:15:40;35.90;;;19.43;;
18596;SDS011;9428;50.950;6.912;2022-12-07T00:18:28;29.90;;;17.77;;
18596;SDS011;9428;50.950;6.912;2022-12-07T00:21:16;27.93;;;17.67;;
18596;SDS011;9428;50.950;6.912;2022-12-07T00:24:05;34.07;;;17.23;;
18596;SDS011;9428;50.950;6.912;2022-12-07T00:26:52;29.83;;;18.17;;
18596;SDS011;9428;50.950;6.912;2022-12-07T00:29:40;30.83;;;18.13;;
18596;SDS011;9428;50.950;6.912;2022-12-07T00:32:28;31.03;;;18.00;;
18596;SDS011;9428;50.950;6.912;2022-12-07T00:35:16;25.10;;;16.13;;
18596;SDS011;9428;50.950;6.912;2022-12-07T00:38:03;27.90;;;16.83;;
18596;SDS011;9428;50.950;6.912;2022-12-07T00:40:53;30.63;;;17.13;;
18596;SDS011;9428;50.950;6.912;2022-12-07T00:43:42;36.30;;;18.03;;
18596;SDS011;9428;50.950;6.912;2022-12-07T00:46:30;30.63;;;16.87;;
18596;SDS011;9428;50.950;6.912;2022-12-07T00:49:19;30.43;;;17.87;;
18596;SDS011;9428;50.950;6.912;2022-12-07T00:52:07;31.47;;;16.67;;
18596;SDS011;9428;50.950;6.912;2022-12-07T00:54:54;26.17;;;17.37;;
18596;SDS011;9428;50.950;6.912;2022-12-07T00:57:41;29.60;;;18.10;;
18596;SDS011;9428;50.950;6.912;2022-12-07T01:00:28;27.33;;;17.37;;
18596;SDS011;9428;50.950;6.912;2022-12-07T01:03:16;27.37;;;16.67;;
18596;SDS011;9428;50.950;6.912;2022-12-07T01:06:05;27.53;;;17.30;;
18596;SDS011;9428;50.950;6.912;2022-12-07T01:08:52;33.80;;;15.90;;
18596;SDS011;9428;50.950;6.912;2022-12-07T01:11:40;27.67;;;17.67;;
18596;SDS011;9428;50.950;6.912;2022-12-07T01:14:27;28.27;;;15.73;;
18596;SDS011;9428;50.950;6.912;2022-12-07T01:17:14;26.43;;;15.23;;
18596;SDS011;9428;50.950;6.912;2022-12-07T01:20:01;26.00;;;15.30;;
18596;SDS011;9428;50.950;6.912;2022-12-07T01:22:50;23.23;;;15.33;;
18596;SDS011;9428;50.950;6.912;2022-12-07T01:25:38;29.07;;;16.43;;
18596;SDS011;9428;50.950;6.912;2022-12-07T01:28:25;23.43;;;14.90;;
18596;SDS011;9428;50.950;6.912;2022-12-07T01:31:13;23.87;;;15.73;;
18596;SDS011;9428;50.950;6.912;2022-12-07T01:34:02;28.17;;;16.47;;
18596;SDS011;9428;50.950;6.912;2022-12-07T01:36:49;32.87;;;17.67;;
18596;SDS011;9428;50.950;6.912;2022-12-07T01:39:38;26.77;;;17.13;;
18596;SDS011;9428;50.950;6.912;2022-12-07T01:42:26;32.70;;;17.20;;
18596;SDS011;9428;50.950;6.912;2022-12-07T01:48:30;31.43;;;18.17;;
18596;SDS011;9428;50.950;6.912;2022-12-07T01:51:20;26.70;;;16.47;;
18596;SDS011;9428;50.950;6.912;2022-12-07T01:54:08;31.67;;;17.53;;
18596;SDS011;9428;50.950;6.912;2022-12-07T01:56:57;29.30;;;16.93;;
18596;SDS011;9428;50.950;6.912;2022-12-07T01:59:45;30.37;;;16.50;;
18596;SDS011;9428;50.950;6.912;2022-12-07T02:02:36;28.60;;;17.70;;
18596;SDS011;9428;50.950;6.912;2022-12-07T02:05:27;31.07;;;16.77;;
18596;SDS011;9428;50.950;6.912;2022-12-07T02:08:15;27.90;;;17.63;;
18596;SDS011;9428;50.950;6.912;2022-12-07T02:11:04;26.37;;;17.30;;
18596;SDS011;9428;50.950;6.912;2022-12-07T02:13:55;25.70;;;16.60;;
18596;SDS011;9428;50.950;6.912;2022-12-07T02:16:46;25.80;;;16.83;;
18596;SDS011;9428;50.950;6.912;2022-12-07T02:23:17;26.63;;;17.10;;
18596;SDS011;9428;50.950;6.912;2022-12-07T02:26:28;25.20;;;16.87;;
18596;SDS011;9428;50.950;6.912;2022-12-07T02:29:44;31.43;;;16.83;;
18596;SDS011;9428;50.950;6.912;2022-12-07T02:32:40;30.17;;;17.43;;
18596;SDS011;9428;50.950;6.912;2022-12-07T02:35:32;26.20;;;16.23;;
18596;SDS011;9428;50.950;6.912;2022-12-07T02:38:24;30.77;;;17.93;;
18596;SDS011;9428;50.950;6.912;2022-12-07T02:41:18;27.90;;;16.37;;
18596;SDS011;9428;50.950;6.912;2022-12-07T02:44:10;26.93;;;16.67;;
18596;SDS011;9428;50.950;6.912;2022-12-07T02:47:04;29.43;;;16.90;;
18596;SDS011;9428;50.950;6.912;2022-12-07T02:49:55;26.27;;;16.60;;
18596;SDS011;9428;50.950;6.912;2022-12-07T02:52:42;28.50;;;17.50;;
18596;SDS011;9428;50.950;6.912;2022-12-07T02:55:31;31.17;;;17.93;;
18596;SDS011;9428;50.950;6.912;2022-12-07T02:58:26;33.23;;;18.40;;
18596;SDS011;9428;50.950;6.912;2022-12-07T03:01:24;30.37;;;17.83;;
18596;SDS011;9428;50.950;6.912;2022-12-07T03:04:22;32.20;;;18.43;;
18596;SDS011;9428;50.950;6.912;2022-12-07T03:07:21;30.10;;;17.43;;
18596;SDS011;9428;50.950;6.912;2022-12-07T03:10:15;30.20;;;17.00;;
18596;SDS011;9428;50.950;6.912;2022-12-07T03:13:09;32.43;;;17.87;;
18596;SDS011;9428;50.950;6.912;2022-12-07T03:16:02;31.47;;;19.17;;
18596;SDS011;9428;50.950;6.912;2022-12-07T03:18:55;30.67;;;17.43;;
18596;SDS011;9428;50.950;6.912;2022-12-07T03:21:46;27.27;;;17.33;;
18596;SDS011;9428;50.950;6.912;2022-12-07T03:24:39;27.53;;;17.40;;
18596;SDS011;9428;50.950;6.912;2022-12-07T03:27:31;27.93;;;18.30;;
18596;SDS011;9428;50.950;6.912;2022-12-07T03:30:21;33.73;;;18.27;;
18596;SDS011;9428;50.950;6.912;2022-12-07T03:33:11;31.33;;;18.30;;
18596;SDS011;9428;50.950;6.912;2022-12-07T03:36:06;30.00;;;18.50;;
18596;SDS011;9428;50.950;6.912;2022-12-07T03:39:00;29.93;;;18.87;;
18596;SDS011;9428;50.950;6.912;2022-12-07T03:41:55;31.03;;;18.87;;
18596;SDS011;9428;50.950;6.912;2022-12-07T03:44:43;29.27;;;18.73;;
18596;SDS011;9428;50.950;6.912;2022-12-07T03:47:31;30.20;;;19.80;;
18596;SDS011;9428;50.950;6.912;2022-12-07T03:50:25;35.47;;;19.30;;
18596;SDS011;9428;50.950;6.912;2022-12-07T03:53:18;33.90;;;18.23;;
18596;SDS011;9428;50.950;6.912;2022-12-07T03:56:10;38.47;;;19.20;;
18596;SDS011;9428;50.950;6.912;2022-12-07T03:58:58;29.47;;;17.67;;
18596;SDS011;9428;50.950;6.912;2022-12-07T04:01:47;31.10;;;18.23;;
18596;SDS011;9428;50.950;6.912;2022-12-07T04:04:40;28.67;;;17.93;;
18596;SDS011;9428;50.950;6.912;2022-12-07T04:07:28;29.13;;;18.07;;
18596;SDS011;9428;50.950;6.912;2022-12-07T04:10:15;27.93;;;16.83;;
18596;SDS011;9428;50.950;6.912;2022-12-07T04:13:04;30.27;;;18.43;;
18596;SDS011;9428;50.950;6.912;2022-12-07T04:15:51;26.37;;;17.97;;
18596;SDS011;9428;50.950;6.912;2022-12-07T04:18:39;32.17;;;17.57;;
18596;SDS011;9428;50.950;6.912;2022-12-07T04:21:26;29.47;;;17.97;;
18596;SDS011;9428;50.950;6.912;2022-12-07T04:24:13;30.37;;;18.13;;
18596;SDS011;9428;50.950;6.912;2022-12-07T04:27:01;29.03;;;17.50;;
18596;SDS011;9428;50.950;6.912;2022-12-07T04:29:50;26.13;;;16.33;;
18596;SDS011;9428;50.950;6.912;2022-12-07T04:32:37;28.67;;;16.30;;
18596;SDS011;9428;50.950;6.912;2022-12-07T04:35:24;29.47;;;17.40;;
18596;SDS011;9428;50.950;6.912;2022-12-07T04:38:11;26.77;;;17.03;;
18596;SDS011;9428;50.950;6.912;2022-12-07T04:41:03;29.80;;;18.13;;
18596;SDS011;9428;50.950;6.912;2022-12-07T04:43:51;28.50;;;18.30;;
18596;SDS011;9428;50.950;6.912;2022-12-07T04:46:40;27.90;;;17.13;;
18596;SDS011;9428;50.950;6.912;2022-12-07T04:49:27;29.43;;;17.50;;
18596;SDS011;9428;50.950;6.912;2022-12-07T04:52:14;31.93;;;17.60;;
18596;SDS011;9428;50.950;6.912;2022-12-07T04:55:01;29.23;;;17.33;;
18596;SDS011;9428;50.950;6.912;2022-12-07T04:57:49;28.20;;;16.37;;
18596;SDS011;9428;50.950;6.912;2022-12-07T05:00:36;27.10;;;16.87;;
18596;SDS011;9428;50.950;6.912;2022-12-07T05:03:25;27.27;;;17.47;;
18596;SDS011;9428;50.950;6.912;2022-12-07T05:06:13;27.90;;;17.37;;
18596;SDS011;9428;50.950;6.912;2022-12-07T05:09:00;34.07;;;18.40;;
18596;SDS011;9428;50.950;6.912;2022-12-07T05:11:48;32.10;;;17.60;;
18596;SDS011;9428;50.950;6.912;2022-12-07T05:14:35;28.77;;;16.70;;
18596;SDS011;9428;50.950;6.912;2022-12-07T05:17:22;27.10;;;16.97;;
18596;SDS011;9428;50.950;6.912;2022-12-07T05:20:11;26.17;;;16.63;;
18596;SDS011;9428;50.950;6.912;2022-12-07T05:22:58;24.70;;;15.97;;
18596;SDS011;9428;50.950;6.912;2022-12-07T05:25:46;29.03;;;17.93;;
18596;SDS011;9428;50.950;6.912;2022-12-07T05:28:33;27.73;;;17.30;;
18596;SDS011;9428;50.950;6.912;2022-12-07T05:31:20;26.93;;;16.27;;
18596;SDS011;9428;50.950;6.912;2022-12-07T05:34:08;31.87;;;17.07;;
18596;SDS011;9428;50.950;6.912;2022-12-07T05:36:57;31.67;;;17.93;;
18596;SDS011;9428;50.950;6.912;2022-12-07T05:39:44;27.13;;;16.43;;
18596;SDS011;9428;50.950;6.912;2022-12-07T05:42:31;27.20;;;17.03;;
18596;SDS011;9428;50.950;6.912;2022-12-07T05:45:18;27.30;;;17.90;;
18596;SDS011;9428;50.950;6.912;2022-12-07T05:48:06;29.87;;;17.87;;
18596;SDS011;9428;50.950;6.912;2022-12-07T05:50:53;32.83;;;18.97;;
18596;SDS011;9428;50.950;6.912;2022-12-07T05:53:41;30.47;;;17.97;;
18596;SDS011;9428;50.950;6.912;2022-12-07T05:56:29;33.37;;;17.93;;
18596;SDS011;9428;50.950;6.912;2022-12-07T05:59:16;33.47;;;18.57;;
18596;SDS011;9428;50.950;6.912;2022-12-07T06:02:09;30.27;;;20.20;;
18596;SDS011;9428;50.950;6.912;2022-12-07T06:04:58;33.50;;;19.53;;
18596;SDS011;9428;50.950;6.912;2022-12-07T06:07:45;35.60;;;19.53;;
18596;SDS011;9428;50.950;6.912;2022-12-07T06:10:33;34.50;;;19.40;;
18596;SDS011;9428;50.950;6.912;2022-12-07T06:13:21;38.87;;;20.53;;
18596;SDS011;9428;50.950;6.912;2022-12-07T06:16:07;35.63;;;19.13;;
18596;SDS011;9428;50.950;6.912;2022-12-07T06:18:54;31.80;;;18.23;;
18596;SDS011;9428;50.950;6.912;2022-12-07T06:21:41;29.07;;;17.70;;
18596;SDS011;9428;50.950;6.912;2022-12-07T06:24:29;31.73;;;18.77;;
18596;SDS011;9428;50.950;6.912;2022-12-07T06:27:18;30.03;;;19.60;;
18596;SDS011;9428;50.950;6.912;2022-12-07T06:30:06;32.10;;;19.57;;
18596;SDS011;9428;50.950;6.912;2022-12-07T06:32:53;34.70;;;20.37;;
18596;SDS011;9428;50.950;6.912;2022-12-07T06:35:41;32.10;;;19.60;;
18596;SDS011;9428;50.950;6.912;2022-12-07T06:38:28;34.43;;;21.10;;
18596;SDS011;9428;50.950;6.912;2022-12-07T06:41:15;37.20;;;21.67;;
18596;SDS011;9428;50.950;6.912;2022-12-07T06:44:04;37.83;;;22.33;;
18596;SDS011;9428;50.950;6.912;2022-12-07T06:46:52;35.30;;;20.63;;
18596;SDS011;9428;50.950;6.912;2022-12-07T06:49:40;32.13;;;21.13;;
18596;SDS011;9428;50.950;6.912;2022-12-07T06:52:27;35.90;;;20.63;;
18596;SDS011;9428;50.950;6.912;2022-12-07T06:55:14;32.03;;;20.60;;
18596;SDS011;9428;50.950;6.912;2022-12-07T06:58:01;32.13;;;20.00;;
18596;SDS011;9428;50.950;6.912;2022-12-07T07:00:50;32.23;;;19.90;;
18596;SDS011;9428;50.950;6.912;2022-12-07T07:03:37;31.33;;;19.67;;
18596;SDS011;9428;50.950;6.912;2022-12-07T07:06:25;32.50;;;19.97;;
18596;SDS011;9428;50.950;6.912;2022-12-07T07:09:12;35.27;;;19.37;;
18596;SDS011;9428;50.950;6.912;2022-12-07T07:11:59;34.10;;;19.03;;
18596;SDS011;9428;50.950;6.912;2022-12-07T07:14:46;29.10;;;18.33;;
18596;SDS011;9428;50.950;6.912;2022-12-07T07:17:35;27.80;;;17.50;;
18596;SDS011;9428;50.950;6.912;2022-12-07T07:20:22;28.67;;;17.43;;
18596;SDS011;9428;50.950;6.912;2022-12-07T07:23:09;32.47;;;17.23;;
18596;SDS011;9428;50.950;6.912;2022-12-07T07:25:56;31.67;;;18.50;;
18596;SDS011;9428;50.950;6.912;2022-12-07T07:28:44;36.27;;;18.20;;
18596;SDS011;9428;50.950;6.912;2022-12-07T07:31:31;28.43;;;17.67;;
18596;SDS011;9428;50.950;6.912;2022-12-07T07:34:22;32.40;;;18.73;;
18596;SDS011;9428;50.950;6.912;2022-12-07T07:37:09;31.60;;;18.40;;
18596;SDS011;9428;50.950;6.912;2022-12-07T07:39:58;30.83;;;17.90;;
18596;SDS011;9428;50.950;6.912;2022-12-07T07:42:46;28.77;;;17.33;;
18596;SDS011;9428;50.950;6.912;2022-12-07T07:45:34;30.90;;;17.43;;
18596;SDS011;9428;50.950;6.912;2022-12-07T07:48:21;37.03;;;19.33;;
18596;SDS011;9428;50.950;6.912;2022-12-07T07:51:11;31.40;;;19.97;;
18596;SDS011;9428;50.950;6.912;2022-12-07T07:53:59;31.80;;;19.50;;
18596;SDS011;9428;50.950;6.912;2022-12-07T07:56:46;32.23;;;18.83;;
18596;SDS011;9428;50.950;6.912;2022-12-07T07:59:34;34.87;;;18.93;;
18596;SDS011;9428;50.950;6.912;2022-12-07T08:02:21;29.30;;;18.40;;
18596;SDS011;9428;50.950;6.912;2022-12-07T08:05:08;27.47;;;18.43;;
18596;SDS011;9428;50.950;6.912;2022-12-07T08:07:58;34.63;;;19.13;;
18596;SDS011;9428;50.950;6.912;2022-12-07T08:10:45;30.17;;;19.40;;
18596;SDS011;9428;50.950;6.912;2022-12-07T08:13:32;33.57;;;18.10;;
18596;SDS011;9428;50.950;6.912;2022-12-07T08:16:20;28.77;;;19.03;;
18596;SDS011;9428;50.950;6.912;2022-12-07T08:19:07;33.83;;;19.03;;
18596;SDS011;9428;50.950;6.912;2022-12-07T08:21:54;29.60;;;19.00;;
18596;SDS011;9428;50.950;6.912;2022-12-07T08:24:43;29.57;;;18.93;;
18596;SDS011;9428;50.950;6.912;2022-12-07T08:27:30;32.43;;;18.47;;
18596;SDS011;9428;50.950;6.912;2022-12-07T08:30:17;29.00;;;18.67;;
18596;SDS011;9428;50.950;6.912;2022-12-07T08:33:05;33.63;;;19.87;;
18596;SDS011;9428;50.950;6.912;2022-12-07T08:35:52;29.43;;;18.37;;
18596;SDS011;9428;50.950;6.912;2022-12-07T08:38:40;29.47;;;17.40;;
18596;SDS011;9428;50.950;6.912;2022-12-07T08:41:29;30.50;;;17.57;;
18596;SDS011;9428;50.950;6.912;2022-12-07T08:44:16;31.57;;;18.03;;
18596;SDS011;9428;50.950;6.912;2022-12-07T08:47:04;29.80;;;16.87;;
18596;SDS011;9428;50.950;6.912;2022-12-07T08:49:53;27.73;;;15.70;;
18596;SDS011;9428;50.950;6.912;2022-12-07T08:52:40;27.60;;;15.53;;
18596;SDS011;9428;50.950;6.912;2022-12-07T08:55:29;21.97;;;14.90;;
18596;SDS011;9428;50.950;6.912;2022-12-07T08:58:17;23.47;;;14.67;;
18596;SDS011;9428;50.950;6.912;2022-12-07T09:01:05;26.13;;;14.57;;
18596;SDS011;9428;50.950;6.912;2022-12-07T09:03:52;26.03;;;14.90;;
18596;SDS011;9428;50.950;6.912;2022-12-07T09:06:40;20.17;;;13.87;;
18596;SDS011;9428;50.950;6.912;2022-12-07T09:09:27;20.63;;;13.27;;
18596;SDS011;9428;50.950;6.912;2022-12-07T09:12:14;20.80;;;13.23;;
18596;SDS011;9428;50.950;6.912;2022-12-07T09:15:04;22.03;;;12.40;;
18596;SDS011;9428;50.950;6.912;2022-12-07T09:17:52;22.67;;;13.07;;
18596;SDS011;9428;50.950;6.912;2022-12-07T09:20:39;23.80;;;13.33;;
18596;SDS011;9428;50.950;6.912;2022-12-07T09:23:26;18.07;;;12.83;;
18596;SDS011;9428;50.950;6.912;2022-12-07T09:26:13;21.03;;;12.97;;
18596;SDS011;9428;50.950;6.912;2022-12-07T09:29:01;20.73;;;12.90;;
18596;SDS011;9428;50.950;6.912;2022-12-07T09:31:50;23.30;;;12.33;;
18596;SDS011;9428;50.950;6.912;2022-12-07T09:34:38;21.43;;;12.57;;
18596;SDS011;9428;50.950;6.912;2022-12-07T09:37:25;37.50;;;15.90;;
18596;SDS011;9428;50.950;6.912;2022-12-07T09:40:13;22.67;;;14.00;;
18596;SDS011;9428;50.950;6.912;2022-12-07T09:43:01;24.83;;;12.80;;
18596;SDS011;9428;50.950;6.912;2022-12-07T09:45:49;20.50;;;12.10;;
18596;SDS011;9428;50.950;6.912;2022-12-07T09:48:40;20.00;;;11.13;;
18596;SDS011;9428;50.950;6.912;2022-12-07T09:51:30;19.33;;;10.57;;
18596;SDS011;9428;50.950;6.912;2022-12-07T09:54:18;19.90;;;11.07;;
18596;SDS011;9428;50.950;6.912;2022-12-07T09:57:05;19.60;;;11.83;;
18596;SDS011;9428;50.950;6.912;2022-12-07T09:59:54;21.60;;;12.27;;
18596;SDS011;9428;50.950;6.912;2022-12-07T10:02:42;19.33;;;10.67;;
18596;SDS011;9428;50.950;6.912;2022-12-07T10:05:36;16.33;;;9.03;;
18596;SDS011;9428;50.950;6.912;2022-12-07T10:08:28;17.63;;;9.60;;
18596;SDS011;9428;50.950;6.912;2022-12-07T10:11:15;21.37;;;10.10;;
18596;SDS011;9428;50.950;6.912;2022-12-07T10:14:10;19.00;;;10.67;;
18596;SDS011;9428;50.950;6.912;2022-12-07T10:16:59;16.27;;;9.00;;
18596;SDS011;9428;50.950;6.912;2022-12-07T10:19:47;16.60;;;9.17;;
18596;SDS011;9428;50.950;6.912;2022-12-07T10:22:35;20.53;;;9.50;;
18596;SDS011;9428;50.950;6.912;2022-12-07T10:25:24;15.50;;;8.47;;
18596;SDS011;9428;50.950;6.912;2022-12-07T10:28:15;17.40;;;9.13;;
18596;SDS011;9428;50.950;6.912;2022-12-07T10:31:15;16.97;;;9.47;;
18596;SDS011;9428;50.950;6.912;2022-12-07T10:34:11;19.23;;;9.60;;
18596;SDS011;9428;50.950;6.912;2022-12-07T10:37:12;17.97;;;9.73;;
18596;SDS011;9428;50.950;6.912;2022-12-07T10:40:10;18.43;;;9.83;;
18596;SDS011;9428;50.950;6.912;2022-12-07T10:43:16;17.67;;;9.50;;
18596;SDS011;9428;50.950;6.912;2022-12-07T10:46:13;18.60;;;9.27;;
18596;SDS011;9428;50.950;6.912;2022-12-07T10:49:34;15.90;;;8.77;;
18596;SDS011;9428;50.950;6.912;2022-12-07T10:52:37;20.77;;;9.40;;
18596;SDS011;9428;50.950;6.912;2022-12-07T10:55:43;17.33;;;9.03;;
18596;SDS011;9428;50.950;6.912;2022-12-07T10:58:44;14.43;;;8.43;;
18596;SDS011;9428;50.950;6.912;2022-12-07T11:01:40;17.37;;;8.73;;
18596;SDS011;9428;50.950;6.912;2022-12-07T11:04:33;18.60;;;9.23;;
18596;SDS011;9428;50.950;6.912;2022-12-07T11:07:29;16.57;;;9.53;;
18596;SDS011;9428;50.950;6.912;2022-12-07T11:10:28;19.63;;;9.63;;
18596;SDS011;9428;50.950;6.912;2022-12-07T11:13:27;17.67;;;9.80;;
18596;SDS011;9428;50.950;6.912;2022-12-07T11:16:24;18.00;;;9.53;;
18596;SDS011;9428;50.950;6.912;2022-12-07T11:19:22;14.70;;;7.80;;
18596;SDS011;9428;50.950;6.912;2022-12-07T11:22:26;18.20;;;8.10;;
18596;SDS011;9428;50.950;6.912;2022-12-07T11:25:24;12.90;;;7.47;;
18596;SDS011;9428;50.950;6.912;2022-12-07T11:28:21;16.43;;;8.37;;
18596;SDS011;9428;50.950;6.912;2022-12-07T11:31:22;13.17;;;7.07;;
18596;SDS011;9428;50.950;6.912;2022-12-07T11:34:16;13.10;;;6.97;;
18596;SDS011;9428;50.950;6.912;2022-12-07T11:37:12;14.57;;;8.03;;
18596;SDS011;9428;50.950;6.912;2022-12-07T11:40:04;12.10;;;6.77;;
18596;SDS011;9428;50.950;6.912;2022-12-07T11:43:01;17.67;;;7.10;;
18596;SDS011;9428;50.950;6.912;2022-12-07T11:45:56;9.57;;;6.23;;
18596;SDS011;9428;50.950;6.912;2022-12-07T11:48:49;13.30;;;6.97;;
18596;SDS011;9428;50.950;6.912;2022-12-07T11:51:44;12.20;;;7.27;;
18596;SDS011;9428;50.950;6.912;2022-12-07T11:54:35;14.13;;;6.70;;
18596;SDS011;9428;50.950;6.912;2022-12-07T11:57:32;14.83;;;7.73;;
18596;SDS011;9428;50.950;6.912;2022-12-07T12:00:24;14.03;;;7.20;;
18596;SDS011;9428;50.950;6.912;2022-12-07T12:03:15;17.20;;;7.63;;
18596;SDS011;9428;50.950;6.912;2022-12-07T12:06:07;14.57;;;7.63;;
18596;SDS011;9428;50.950;6.912;2022-12-07T12:08:55;15.77;;;8.77;;
18596;SDS011;9428;50.950;6.912;2022-12-07T12:11:52;18.07;;;9.20;;
18596;SDS011;9428;50.950;6.912;2022-12-07T12:15:08;19.17;;;9.33;;
18596;SDS011;9428;50.950;6.912;2022-12-07T12:18:11;17.30;;;10.07;;
18596;SDS011;9428;50.950;6.912;2022-12-07T12:21:31;16.97;;;9.53;;
18596;SDS011;9428;50.950;6.912;2022-12-07T12:24:19;17.40;;;10.53;;
18596;SDS011;9428;50.950;6.912;2022-12-07T12:27:16;20.43;;;9.30;;
18596;SDS011;9428;50.950;6.912;2022-12-07T12:30:23;19.83;;;9.33;;
18596;SDS011;9428;50.950;6.912;2022-12-07T12:33:16;17.53;;;9.90;;
18596;SDS011;9428;50.950;6.912;2022-12-07T12:36:16;18.50;;;10.07;;
18596;SDS011;9428;50.950;6.912;2022-12-07T12:39:12;19.23;;;10.47;;
18596;SDS011;9428;50.950;6.912;2022-12-07T12:42:00;18.80;;;9.53;;
18596;SDS011;9428;50.950;6.912;2022-12-07T12:45:03;17.97;;;9.60;;
18596;SDS011;9428;50.950;6.912;2022-12-07T12:48:04;15.10;;;8.33;;
18596;SDS011;9428;50.950;6.912;2022-12-07T12:54:25;21.03;;;9.60;;
18596;SDS011;9428;50.950;6.912;2022-12-07T12:57:15;15.03;;;9.03;;
18596;SDS011;9428;50.950;6.912;2022-12-07T13:00:15;18.83;;;9.40;;
18596;SDS011;9428;50.950;6.912;2022-12-07T13:03:16;14.90;;;8.03;;
18596;SDS011;9428;50.950;6.912;2022-12-07T13:06:20;12.53;;;8.20;;
18596;SDS011;9428;50.950;6.912;2022-12-07T13:09:21;23.17;;;8.70;;
18596;SDS011;9428;50.950;6.912;2022-12-07T13:12:13;11.97;;;8.13;;
18596;SDS011;9428;50.950;6.912;2022-12-07T13:15:02;15.47;;;7.47;;
18596;SDS011;9428;50.950;6.912;2022-12-07T13:17:57;16.17;;;7.83;;
18596;SDS011;9428;50.950;6.912;2022-12-07T13:20:50;13.80;;;7.50;;
18596;SDS011;9428;50.950;6.912;2022-12-07T13:23:51;15.47;;;7.50;;
18596;SDS011;9428;50.950;6.912;2022-12-07T13:26:43;18.00;;;8.57;;
18596;SDS011;9428;50.950;6.912;2022-12-07T13:29:35;18.97;;;8.60;;
18596;SDS011;9428;50.950;6.912;2022-12-07T13:32:25;14.93;;;7.70;;
18596;SDS011;9428;50.950;6.912;2022-12-07T13:35:27;15.13;;;8.27;;
18596;SDS011;9428;50.950;6.912;2022-12-07T13:38:23;19.37;;;9.10;;
18596;SDS011;9428;50.950;6.912;2022-12-07T13:41:14;15.53;;;8.57;;
18596;SDS011;9428;50.950;6.912;2022-12-07T13:44:07;19.27;;;9.10;;
18596;SDS011;9428;50.950;6.912;2022-12-07T13:47:01;16.27;;;8.17;;
18596;SDS011;9428;50.950;6.912;2022-12-07T13:49:54;16.10;;;8.03;;
18596;SDS011;9428;50.950;6.912;2022-12-07T13:52:43;13.77;;;7.70;;
18596;SDS011;9428;50.950;6.912;2022-12-07T13:55:31;19.67;;;7.90;;
18596;SDS011;9428;50.950;6.912;2022-12-07T13:58:19;17.03;;;7.23;;
18596;SDS011;9428;50.950;6.912;2022-12-07T14:01:08;12.90;;;7.43;;
18596;SDS011;9428;50.950;6.912;2022-12-07T14:03:55;14.40;;;7.20;;
18596;SDS011;9428;50.950;6.912;2022-12-07T14:06:46;14.63;;;7.33;;
18596;SDS011;9428;50.950;6.912;2022-12-07T14:09:35;12.83;;;7.30;;
18596;SDS011;9428;50.950;6.912;2022-12-07T14:12:23;16.87;;;6.87;;
18596;SDS011;9428;50.950;6.912;2022-12-07T14:15:15;14.27;;;7.13;;
18596;SDS011;9428;50.950;6.912;2022-12-07T14:21:15;18.23;;;8.83;;
18596;SDS011;9428;50.950;6.912;2022-12-07T14:27:15;13.73;;;9.13;;
18596;SDS011;9428;50.950;6.912;2022-12-07T14:30:05;15.73;;;8.73;;
18596;SDS011;9428;50.950;6.912;2022-12-07T14:33:03;15.30;;;7.47;;
18596;SDS011;9428;50.950;6.912;2022-12-07T14:35:54;21.23;;;7.70;;
18596;SDS011;9428;50.950;6.912;2022-12-07T14:38:43;13.33;;;7.87;;
18596;SDS011;9428;50.950;6.912;2022-12-07T14:41:30;14.67;;;8.50;;
18596;SDS011;9428;50.950;6.912;2022-12-07T14:44:34;17.67;;;9.67;;
18596;SDS011;9428;50.950;6.912;2022-12-07T14:47:22;15.53;;;9.43;;
18596;SDS011;9428;50.950;6.912;2022-12-07T14:50:11;18.93;;;9.97;;
18596;SDS011;9428;50.950;6.912;2022-12-07T14:53:10;18.70;;;9.57;;
18596;SDS011;9428;50.950;6.912;2022-12-07T14:56:00;18.33;;;9.93;;
18596;SDS011;9428;50.950;6.912;2022-12-07T14:58:47;15.50;;;9.23;;
18596;SDS011;9428;50.950;6.912;2022-12-07T15:01:35;14.20;;;8.40;;
18596;SDS011;9428;50.950;6.912;2022-12-07T15:04:22;16.03;;;8.37;;
18596;SDS011;9428;50.950;6.912;2022-12-07T15:07:10;15.00;;;9.07;;
18596;SDS011;9428;50.950;6.912;2022-12-07T15:10:03;15.90;;;8.23;;
18596;SDS011;9428;50.950;6.912;2022-12-07T15:12:51;14.80;;;8.17;;
18596;SDS011;9428;50.950;6.912;2022-12-07T15:15:38;14.17;;;7.67;;
18596;SDS011;9428;50.950;6.912;2022-12-07T15:18:25;15.80;;;7.83;;
18596;SDS011;9428;50.950;6.912;2022-12-07T15:21:13;15.13;;;8.90;;
18596;SDS011;9428;50.950;6.912;2022-12-07T15:24:01;12.97;;;6.07;;
18596;SDS011;9428;50.950;6.912;2022-12-07T15:26:50;11.43;;;4.93;;
18596;SDS011;9428;50.950;6.912;2022-12-07T15:29:37;7.50;;;4.67;;
18596;SDS011;9428;50.950;6.912;2022-12-07T15:32:24;12.10;;;5.53;;
18596;SDS011;9428;50.950;6.912;2022-12-07T15:35:12;8.00;;;5.20;;
18596;SDS011;9428;50.950;6.912;2022-12-07T15:37:59;8.20;;;4.20;;
18596;SDS011;9428;50.950;6.912;2022-12-07T15:40:50;5.53;;;4.03;;
18596;SDS011;9428;50.950;6.912;2022-12-07T15:43:39;10.43;;;4.33;;
18596;SDS011;9428;50.950;6.912;2022-12-07T15:46:44;12.83;;;5.70;;
18596;SDS011;9428;50.950;6.912;2022-12-07T15:49:31;14.90;;;6.67;;
18596;SDS011;9428;50.950;6.912;2022-12-07T15:52:18;10.50;;;6.80;;
18596;SDS011;9428;50.950;6.912;2022-12-07T15:55:06;11.63;;;6.17;;
18596;SDS011;9428;50.950;6.912;2022-12-07T15:57:54;8.50;;;6.45;;
18596;SDS011;9428;50.950;6.912;2022-12-07T16:00:43;15.17;;;7.43;;
18596;SDS011;9428;50.950;6.912;2022-12-07T16:03:32;18.43;;;6.97;;
18596;SDS011;9428;50.950;6.912;2022-12-07T16:06:20;9.10;;;6.73;;
18596;SDS011;9428;50.950;6.912;2022-12-07T16:09:07;10.50;;;5.97;;
18596;SDS011;9428;50.950;6.912;2022-12-07T16:11:55;12.10;;;6.53;;
18596;SDS011;9428;50.950;6.912;2022-12-07T16:14:42;16.13;;;6.57;;
18596;SDS011;9428;50.950;6.912;2022-12-07T16:17:31;12.37;;;6.67;;
18596;SDS011;9428;50.950;6.912;2022-12-07T16:20:18;10.87;;;6.40;;
18596;SDS011;9428;50.950;6.912;2022-12-07T16:23:05;14.03;;;6.97;;
18596;SDS011;9428;50.950;6.912;2022-12-07T16:25:52;13.50;;;6.80;;
18596;SDS011;9428;50.950;6.912;2022-12-07T16:28:40;7.77;;;5.70;;
18596;SDS011;9428;50.950;6.912;2022-12-07T16:31:27;7.93;;;4.80;;
18596;SDS011;9428;50.950;6.912;2022-12-07T16:34:16;10.33;;;4.13;;
18596;SDS011;9428;50.950;6.912;2022-12-07T16:37:04;9.20;;;3.60;;
18596;SDS011;9428;50.950;6.912;2022-12-07T16:39:51;4.67;;;3.67;;
18596;SDS011;9428;50.950;6.912;2022-12-07T16:42:38;4.93;;;3.50;;
18596;SDS011;9428;50.950;6.912;2022-12-07T16:45:25;5.03;;;3.17;;
18596;SDS011;9428;50.950;6.912;2022-12-07T16:48:13;6.03;;;3.03;;
18596;SDS011;9428;50.950;6.912;2022-12-07T16:51:03;8.73;;;3.40;;
18596;SDS011;9428;50.950;6.912;2022-12-07T16:53:52;8.07;;;3.80;;
18596;SDS011;9428;50.950;6.912;2022-12-07T16:56:40;7.60;;;4.57;;
18596;SDS011;9428;50.950;6.912;2022-12-07T16:59:29;8.90;;;4.47;;
18596;SDS011;9428;50.950;6.912;2022-12-07T17:02:17;9.10;;;4.63;;
18596;SDS011;9428;50.950;6.912;2022-12-07T17:05:05;6.70;;;4.40;;
18596;SDS011;9428;50.950;6.912;2022-12-07T17:07:55;7.70;;;4.60;;
18596;SDS011;9428;50.950;6.912;2022-12-07T17:10:43;7.50;;;4.90;;
18596;SDS011;9428;50.950;6.912;2022-12-07T17:13:31;10.87;;;5.50;;
18596;SDS011;9428;50.950;6.912;2022-12-07T17:16:35;14.50;;;6.40;;